createdAt,value
2022-08-29T00:00:51.138Z,32.70
2022-08-29T00:03:21.458Z,32.80
2022-08-29T00:05:51.503Z,33.00
2022-08-29T00:08:21.295Z,32.90
2022-08-29T00:10:50.156Z,32.80
2022-08-29T00:16:35.937Z,32.80
2022-08-29T00:19:06.315Z,32.90
2022-08-29T00:21:35.072Z,32.30
2022-08-29T00:24:04.444Z,31.80
2022-08-29T00:26:33.320Z,31.50
2022-08-29T00:29:02.215Z,31.10
2022-08-29T00:31:30.953Z,30.90
2022-08-29T00:33:59.855Z,30.90
2022-08-29T00:36:30.618Z,30.80
2022-08-29T00:38:59.892Z,30.90
2022-08-29T00:41:28.754Z,31.00
2022-08-29T00:43:57.646Z,31.00
2022-08-29T00:46:53.163Z,31.10
2022-08-29T00:49:36.838Z,31.30
2022-08-29T00:52:19.320Z,31.40
2022-08-29T00:54:54.945Z,31.50
2022-08-29T00:57:27.736Z,31.50
2022-08-29T00:59:57.017Z,31.60
2022-08-29T01:02:26.504Z,31.70
2022-08-29T01:04:55.423Z,31.70
2022-08-29T01:07:25.841Z,31.80
2022-08-29T01:09:55.401Z,31.80
2022-08-29T01:12:23.994Z,31.80
2022-08-29T01:14:55.530Z,31.80
2022-08-29T01:17:31.083Z,31.80
2022-08-29T01:20:12.219Z,31.80
2022-08-29T01:23:01.142Z,31.90
2022-08-29T01:25:37.358Z,31.90
2022-08-29T01:28:14.743Z,31.90
2022-08-29T01:31:01.453Z,31.90
2022-08-29T01:33:44.715Z,32.00
2022-08-29T01:36:19.341Z,32.00
2022-08-29T01:38:48.077Z,32.00
2022-08-29T01:41:22.812Z,32.00
2022-08-29T01:43:55.091Z,32.00
2022-08-29T01:46:27.666Z,32.00
2022-08-29T01:48:56.967Z,32.00
2022-08-29T01:51:26.261Z,32.10
2022-08-29T01:53:55.423Z,32.10
2022-08-29T01:56:28.793Z,32.20
2022-08-29T01:59:00.906Z,32.30
2022-08-29T02:01:37.129Z,32.30
2022-08-29T02:04:08.329Z,32.30
2022-08-29T02:06:38.440Z,32.40
2022-08-29T02:09:08.204Z,32.30
2022-08-29T02:11:41.556Z,32.30
2022-08-29T02:14:19.024Z,32.20
2022-08-29T02:16:48.963Z,32.20
2022-08-29T02:19:19.236Z,32.30
2022-08-29T02:21:48.195Z,32.20
2022-08-29T02:24:26.340Z,32.30
2022-08-29T02:26:58.783Z,32.20
2022-08-29T02:29:37.030Z,32.20
2022-08-29T02:32:09.043Z,32.30
2022-08-29T02:34:38.903Z,32.30
2022-08-29T02:37:08.293Z,32.40
2022-08-29T02:39:36.945Z,32.40
2022-08-29T02:42:07.693Z,32.30
2022-08-29T02:44:36.525Z,32.40
2022-08-29T02:47:05.541Z,32.30
2022-08-29T02:49:34.521Z,32.00
2022-08-29T02:52:06.668Z,32.10
2022-08-29T02:54:35.874Z,32.10
2022-08-29T02:57:07.032Z,32.10
2022-08-29T02:59:35.981Z,32.10
2022-08-29T03:02:05.157Z,32.10
2022-08-29T03:04:34.280Z,32.20
2022-08-29T03:07:02.961Z,32.20
2022-08-29T03:09:31.632Z,32.20
2022-08-29T03:12:00.534Z,31.60
2022-08-29T03:14:30.613Z,31.60
2022-08-29T03:16:59.283Z,31.70
2022-08-29T03:19:28.263Z,31.80
2022-08-29T03:21:57.074Z,31.90
2022-08-29T03:24:26.991Z,31.90
2022-08-29T03:26:57.176Z,31.70
2022-08-29T03:29:27.706Z,31.70
2022-08-29T03:31:58.778Z,31.70
2022-08-29T03:34:28.784Z,31.70
2022-08-29T03:36:58.252Z,31.80
2022-08-29T03:39:27.473Z,31.80
2022-08-29T03:41:56.801Z,32.00
2022-08-29T03:44:26.188Z,32.10
2022-08-29T03:46:58.501Z,32.10
2022-08-29T03:49:27.587Z,32.00
2022-08-29T03:51:56.502Z,32.10
2022-08-29T03:54:25.287Z,32.20
2022-08-29T03:56:55.673Z,32.20
2022-08-29T03:59:24.758Z,32.20
2022-08-29T04:01:53.423Z,32.30
2022-08-29T04:04:41.298Z,32.20
2022-08-29T04:07:13.246Z,32.20
2022-08-29T04:09:43.121Z,31.30
2022-08-29T04:12:13.774Z,31.00
2022-08-29T04:14:43.004Z,31.10
2022-08-29T04:17:12.401Z,30.90
2022-08-29T04:19:42.354Z,30.70
2022-08-29T04:22:11.205Z,30.80
2022-08-29T04:24:39.798Z,30.80
2022-08-29T04:27:08.602Z,30.60
2022-08-29T04:29:38.331Z,30.10
2022-08-29T04:32:07.273Z,29.20
2022-08-29T04:34:35.922Z,29.20
2022-08-29T04:37:06.116Z,29.50
2022-08-29T04:39:35.919Z,29.50
2022-08-29T04:42:05.092Z,29.60
2022-08-29T04:44:34.553Z,29.70
2022-08-29T04:47:03.148Z,29.30
2022-08-29T04:49:31.815Z,29.60
2022-08-29T04:52:00.651Z,29.40
2022-08-29T04:54:30.660Z,29.50
2022-08-29T04:57:03.618Z,29.40
2022-08-29T04:59:34.789Z,29.70
2022-08-29T05:02:03.836Z,29.90
2022-08-29T05:04:32.555Z,29.50
2022-08-29T05:07:01.364Z,29.70
2022-08-29T05:09:32.051Z,29.50
2022-08-29T05:12:00.669Z,29.00
2022-08-29T05:14:29.505Z,28.90
2022-08-29T05:16:58.261Z,28.80
2022-08-29T05:19:26.982Z,28.60
2022-08-29T05:22:03.237Z,28.60
2022-08-29T05:24:37.264Z,28.20
2022-08-29T05:27:10.048Z,28.10
2022-08-29T05:29:41.200Z,28.20
2022-08-29T05:32:12.447Z,28.30
2022-08-29T05:34:42.955Z,28.40
2022-08-29T05:37:16.896Z,27.90
2022-08-29T05:39:48.381Z,27.80
2022-08-29T05:42:22.115Z,27.90
2022-08-29T05:44:52.456Z,27.60
2022-08-29T05:47:22.885Z,27.80
2022-08-29T05:49:51.946Z,27.60
2022-08-29T05:52:22.105Z,28.00
2022-08-29T05:54:52.473Z,28.00
2022-08-29T05:57:24.702Z,28.40
2022-08-29T05:59:55.199Z,28.90
2022-08-29T06:02:25.386Z,28.90
2022-08-29T06:04:54.253Z,28.70
2022-08-29T06:07:23.412Z,28.10
2022-08-29T06:09:53.895Z,28.20
2022-08-29T06:12:27.241Z,27.60
2022-08-29T06:14:55.859Z,27.90
2022-08-29T06:17:42.889Z,28.20
2022-08-29T06:20:13.169Z,28.50
2022-08-29T06:22:42.591Z,28.90
2022-08-29T06:25:37.293Z,28.70
2022-08-29T06:28:01.724Z,28.90
2022-08-29T06:30:34.368Z,29.10
2022-08-29T06:33:04.146Z,28.60
2022-08-29T06:35:32.755Z,28.70
2022-08-29T06:38:01.345Z,29.00
2022-08-29T06:40:31.604Z,29.10
2022-08-29T06:43:00.401Z,28.80
2022-08-29T06:45:29.131Z,28.40
2022-08-29T06:47:57.935Z,28.30
2022-08-29T06:50:28.451Z,28.10
2022-08-29T06:53:05.418Z,28.10
2022-08-29T06:55:44.907Z,28.10
2022-08-29T06:58:15.950Z,28.50
2022-08-29T07:00:49.531Z,28.20
2022-08-29T07:03:19.223Z,28.10
2022-08-29T07:05:53.574Z,28.70
2022-08-29T07:08:23.788Z,29.30
2022-08-29T07:10:54.010Z,29.20
2022-08-29T07:13:22.781Z,28.90
2022-08-29T07:15:52.108Z,29.30
2022-08-29T07:18:21.569Z,29.70
2022-08-29T07:20:50.719Z,29.80
2022-08-29T07:23:19.301Z,29.80
2022-08-29T07:25:48.314Z,29.80
2022-08-29T07:28:18.446Z,29.50
2022-08-29T07:30:47.107Z,29.60
2022-08-29T07:33:16.223Z,29.40
2022-08-29T07:35:45.058Z,29.40
2022-08-29T07:38:13.814Z,29.10
2022-08-29T07:40:43.275Z,28.80
2022-08-29T07:43:15.435Z,28.90
2022-08-29T07:45:48.123Z,28.20
2022-08-29T07:48:21.090Z,28.20
2022-08-29T07:50:51.716Z,27.90
2022-08-29T07:53:20.968Z,27.90
2022-08-29T07:55:49.552Z,27.40
2022-08-29T07:58:18.368Z,27.80
2022-08-29T08:00:48.314Z,28.30
2022-08-29T08:03:16.997Z,28.70
2022-08-29T08:05:45.819Z,28.50
2022-08-29T08:08:15.614Z,27.90
2022-08-29T08:10:47.840Z,28.00
2022-08-29T08:13:20.089Z,28.00
2022-08-29T08:15:50.215Z,28.30
2022-08-29T08:18:18.836Z,28.30
2022-08-29T08:20:48.506Z,28.40
2022-08-29T08:23:17.903Z,28.30
2022-08-29T08:25:46.815Z,27.60
2022-08-29T08:28:17.259Z,27.30
2022-08-29T08:30:46.161Z,27.60
2022-08-29T08:33:16.721Z,28.00
2022-08-29T08:35:46.962Z,28.20
2022-08-29T08:38:16.997Z,28.20
2022-08-29T08:41:04.460Z,28.20
2022-08-29T08:43:53.411Z,28.30
2022-08-29T08:46:33.301Z,28.40
2022-08-29T08:49:10.444Z,28.40
2022-08-29T08:51:44.396Z,28.10
2022-08-29T08:54:21.241Z,28.10
2022-08-29T08:57:01.363Z,27.70
2022-08-29T08:59:39.536Z,27.90
2022-08-29T09:02:35.471Z,28.10
2022-08-29T09:05:29.643Z,29.10
2022-08-29T09:08:11.037Z,29.80
2022-08-29T09:10:49.709Z,30.20
2022-08-29T09:13:38.621Z,30.20
2022-08-29T09:16:18.123Z,30.90
2022-08-29T09:18:52.671Z,32.00
2022-08-29T09:21:41.670Z,33.30
2022-08-29T09:24:22.051Z,33.80
2022-08-29T09:26:50.711Z,34.60
2022-08-29T09:29:21.101Z,34.40
2022-08-29T09:32:12.085Z,33.90
2022-08-29T09:37:36.880Z,32.70
2022-08-29T09:40:11.421Z,32.60
2022-08-29T09:42:44.557Z,32.60
2022-08-29T09:45:20.591Z,32.50
2022-08-29T09:47:49.295Z,32.80
2022-08-29T09:50:24.819Z,32.80
2022-08-29T09:52:59.573Z,31.80
2022-08-29T09:55:35.122Z,31.00
2022-08-29T09:58:07.927Z,31.40
2022-08-29T10:00:40.398Z,31.90
2022-08-29T10:03:22.423Z,33.10
2022-08-29T10:06:09.365Z,33.40
2022-08-29T10:08:43.796Z,33.00
2022-08-29T10:11:34.164Z,33.90
2022-08-29T10:14:09.786Z,34.00
2022-08-29T10:16:52.721Z,34.10
2022-08-29T10:19:32.975Z,33.50
2022-08-29T10:22:18.891Z,33.30
2022-08-29T10:25:01.616Z,33.50
2022-08-29T10:27:43.752Z,33.00
2022-08-29T10:30:17.324Z,32.60
2022-08-29T10:33:10.506Z,33.10
2022-08-29T10:35:53.705Z,33.20
2022-08-29T10:38:45.231Z,33.50
2022-08-29T10:41:32.630Z,33.50
2022-08-29T10:44:26.323Z,33.30
2022-08-29T10:47:22.662Z,32.10
2022-08-29T10:50:21.861Z,32.40
2022-08-29T10:53:11.534Z,32.40
2022-08-29T10:55:51.036Z,32.30
2022-08-29T10:58:47.500Z,31.60
2022-08-29T11:01:28.449Z,31.70
2022-08-29T11:04:17.325Z,31.40
2022-08-29T11:06:56.965Z,31.20
2022-08-29T11:09:32.545Z,30.80
2022-08-29T11:12:11.021Z,30.70
2022-08-29T11:14:57.624Z,31.00
2022-08-29T11:17:35.905Z,30.80
2022-08-29T11:20:13.688Z,31.10
2022-08-29T11:22:50.051Z,30.30
2022-08-29T11:25:21.907Z,30.50
2022-08-29T11:28:04.126Z,30.40
2022-08-29T11:30:47.933Z,30.30
2022-08-29T11:33:33.304Z,30.90
2022-08-29T11:36:33.687Z,30.90
2022-08-29T11:39:47.410Z,30.60
2022-08-29T11:45:22.658Z,31.20
2022-08-29T11:48:19.464Z,31.50
2022-08-29T11:50:49.439Z,30.80
2022-08-29T11:53:34.112Z,30.80
2022-08-29T11:56:28.506Z,30.70
2022-08-29T11:59:00.159Z,30.80
2022-08-29T12:02:00.680Z,30.70
2022-08-29T12:04:56.954Z,30.80
2022-08-29T12:07:37.507Z,31.20
2022-08-29T12:10:12.039Z,31.20
2022-08-29T12:12:46.242Z,31.50
2022-08-29T12:16:08.536Z,31.50
2022-08-29T12:18:48.907Z,31.30
2022-08-29T12:21:47.167Z,31.20
2022-08-29T12:24:43.095Z,31.30
2022-08-29T12:28:05.995Z,30.50
2022-08-29T12:30:41.721Z,30.90
2022-08-29T12:33:28.831Z,30.60
2022-08-29T12:36:26.031Z,30.70
2022-08-29T12:39:19.449Z,30.90
2022-08-29T12:42:18.456Z,30.80
2022-08-29T12:45:00.579Z,30.90
2022-08-29T12:47:36.919Z,31.20
2022-08-29T12:50:15.496Z,30.90
2022-08-29T12:52:44.534Z,31.10
2022-08-29T12:55:27.659Z,30.90
2022-08-29T12:57:59.141Z,31.10
2022-08-29T13:00:32.337Z,30.90
2022-08-29T13:03:09.485Z,31.40
2022-08-29T13:05:44.865Z,31.40
2022-08-29T13:08:17.916Z,30.90
2022-08-29T13:10:56.478Z,30.90
2022-08-29T13:13:27.606Z,30.90
2022-08-29T13:16:02.260Z,30.50
2022-08-29T13:18:44.313Z,30.60
2022-08-29T13:21:25.774Z,30.80
2022-08-29T13:24:05.492Z,30.90
2022-08-29T13:26:35.742Z,30.90
2022-08-29T13:29:27.955Z,30.90
2022-08-29T13:32:24.092Z,31.00
2022-08-29T13:35:18.032Z,31.40
2022-08-29T13:38:08.209Z,31.40
2022-08-29T13:40:44.657Z,30.90
2022-08-29T13:43:34.253Z,30.90
2022-08-29T13:46:15.448Z,31.10
2022-08-29T13:48:46.329Z,31.40
2022-08-29T13:51:15.529Z,31.60
2022-08-29T13:53:45.521Z,31.70
2022-08-29T13:56:27.801Z,31.70
2022-08-29T13:58:59.552Z,31.90
2022-08-29T14:01:29.800Z,32.40
2022-08-29T14:04:15.351Z,32.50
2022-08-29T14:06:50.266Z,31.70
2022-08-29T14:09:25.528Z,31.60
2022-08-29T14:11:54.132Z,31.50
2022-08-29T14:14:23.012Z,31.80
2022-08-29T14:16:53.732Z,31.90
2022-08-29T14:19:24.212Z,31.90
2022-08-29T14:21:54.521Z,32.00
2022-08-29T14:24:27.330Z,32.50
2022-08-29T14:27:01.104Z,32.60
2022-08-29T14:29:31.367Z,32.50
2022-08-29T14:32:02.911Z,31.80
2022-08-29T14:34:33.616Z,31.90
2022-08-29T14:37:03.074Z,32.40
2022-08-29T14:39:31.901Z,32.40
2022-08-29T14:42:00.562Z,32.20
2022-08-29T14:44:29.458Z,32.40
2022-08-29T14:46:58.112Z,32.40
2022-08-29T14:49:27.113Z,32.00
2022-08-29T14:51:57.428Z,31.70
2022-08-29T14:54:26.082Z,31.90
2022-08-29T14:56:54.795Z,31.90
2022-08-29T14:59:25.624Z,31.50
2022-08-29T15:01:55.498Z,31.30
2022-08-29T15:04:36.009Z,31.30
2022-08-29T15:07:13.581Z,31.50
2022-08-29T15:09:44.050Z,31.80
2022-08-29T15:12:14.257Z,32.10
2022-08-29T15:14:43.340Z,32.20
2022-08-29T15:17:13.521Z,31.70
2022-08-29T15:20:31.809Z,31.80
2022-08-29T15:22:32.811Z,30.70
2022-08-29T15:25:01.831Z,30.80
2022-08-29T15:27:32.143Z,31.20
2022-08-29T15:30:01.176Z,31.30
2022-08-29T15:32:39.131Z,30.70
2022-08-29T15:35:15.138Z,30.90
2022-08-29T15:37:44.290Z,30.40
2022-08-29T15:40:15.148Z,31.00
2022-08-29T15:42:45.329Z,31.10
2022-08-29T15:45:14.217Z,30.60
2022-08-29T15:47:46.237Z,30.60
2022-08-29T15:50:16.192Z,30.70
2022-08-29T15:52:45.124Z,31.30
2022-08-29T15:55:14.014Z,31.00
2022-08-29T15:57:51.725Z,30.90
2022-08-29T16:00:29.701Z,30.60
2022-08-29T16:03:02.837Z,30.50
2022-08-29T16:05:33.147Z,30.60
2022-08-29T16:08:03.410Z,30.60
2022-08-29T16:10:33.309Z,31.00
2022-08-29T16:13:02.166Z,31.00
2022-08-29T16:15:31.791Z,31.10
2022-08-29T16:18:03.654Z,31.20
2022-08-29T16:20:32.974Z,31.50
2022-08-29T16:23:02.941Z,31.00
2022-08-29T16:25:33.496Z,31.20
2022-08-29T16:28:06.083Z,31.40
2022-08-29T16:30:44.516Z,31.80
2022-08-29T16:33:16.810Z,31.70
2022-08-29T16:35:45.552Z,31.80
2022-08-29T16:38:14.335Z,31.60
2022-08-29T16:40:43.419Z,31.50
2022-08-29T16:43:12.590Z,31.80
2022-08-29T16:45:41.303Z,32.00
2022-08-29T16:48:10.818Z,31.70
2022-08-29T16:50:46.219Z,31.90
2022-08-29T16:53:15.907Z,32.10
2022-08-29T16:55:44.586Z,31.90
2022-08-29T16:58:30.601Z,32.00
2022-08-29T17:01:00.248Z,32.00
2022-08-29T17:03:29.013Z,32.20
2022-08-29T17:05:59.285Z,32.20
2022-08-29T17:08:26.902Z,31.90
2022-08-29T17:10:54.485Z,32.10
2022-08-29T17:13:23.738Z,32.20
2022-08-29T17:15:52.027Z,32.10
2022-08-29T17:18:20.705Z,32.10
2022-08-29T17:20:49.655Z,32.20
2022-08-29T17:23:20.024Z,32.40
2022-08-29T17:25:48.797Z,32.50
2022-08-29T17:28:18.911Z,32.60
2022-08-29T17:30:48.963Z,32.70
2022-08-29T17:33:18.292Z,32.70
2022-08-29T17:35:48.714Z,32.80
2022-08-29T17:38:19.295Z,32.80
2022-08-29T17:40:49.492Z,32.90
2022-08-29T17:43:20.944Z,32.80
2022-08-29T17:45:50.014Z,32.80
2022-08-29T17:48:19.468Z,32.80
2022-08-29T17:50:48.967Z,32.80
2022-08-29T17:53:20.666Z,32.70
2022-08-29T17:55:51.176Z,32.70
2022-08-29T17:58:22.306Z,32.70
2022-08-29T18:00:52.064Z,32.60
2022-08-29T18:03:20.944Z,32.50
2022-08-29T18:05:49.698Z,32.50
2022-08-29T18:08:19.650Z,32.40
2022-08-29T18:10:48.467Z,32.40
2022-08-29T18:13:21.438Z,32.40
2022-08-29T18:15:52.544Z,32.30
2022-08-29T18:18:22.068Z,32.20
2022-08-29T18:20:51.002Z,32.20
2022-08-29T18:23:21.277Z,32.10
2022-08-29T18:25:49.991Z,32.10
2022-08-29T18:28:19.118Z,32.10
2022-08-29T18:30:48.241Z,32.00
2022-08-29T18:33:17.236Z,31.90
2022-08-29T18:35:46.170Z,31.90
2022-08-29T18:38:15.834Z,31.90
2022-08-29T18:40:46.721Z,31.80
2022-08-29T18:43:20.104Z,31.80
2022-08-29T18:45:49.099Z,31.70
2022-08-29T18:48:18.254Z,31.70
2022-08-29T18:50:48.515Z,31.60
2022-08-29T18:53:21.344Z,31.60
2022-08-29T18:55:52.764Z,31.70
2022-08-29T18:58:22.934Z,31.60
2022-08-29T19:00:52.407Z,31.50
2022-08-29T19:03:22.589Z,31.50
2022-08-29T19:05:54.025Z,31.50
2022-08-29T19:08:25.647Z,31.40
2022-08-29T19:10:56.245Z,31.40
2022-08-29T19:13:26.557Z,31.40
2022-08-29T19:16:00.723Z,31.40
2022-08-29T19:18:30.546Z,31.40
2022-08-29T19:21:06.568Z,31.40
2022-08-29T19:23:40.983Z,31.30
2022-08-29T19:26:14.388Z,31.20
2022-08-29T19:28:44.645Z,31.20
2022-08-29T19:31:15.132Z,31.10
2022-08-29T19:33:46.177Z,31.20
2022-08-29T19:36:15.427Z,31.20
2022-08-29T19:38:44.883Z,31.10
2022-08-29T19:41:15.503Z,31.20
2022-08-29T19:43:44.596Z,31.10
2022-08-29T19:46:18.319Z,31.10
2022-08-29T19:48:50.975Z,31.10
2022-08-29T19:51:25.174Z,31.10
2022-08-29T19:53:57.115Z,30.90
2022-08-29T19:56:28.564Z,31.00
2022-08-29T19:58:59.652Z,31.10
2022-08-29T20:01:29.239Z,30.90
2022-08-29T20:03:58.190Z,30.80
2022-08-29T20:06:27.096Z,30.80
2022-08-29T20:08:56.854Z,30.70
2022-08-29T20:11:29.798Z,30.70
2022-08-29T20:13:59.363Z,30.80
2022-08-29T20:16:33.864Z,30.70
2022-08-29T20:19:05.303Z,30.60
2022-08-29T20:21:35.253Z,30.40
2022-08-29T20:24:05.441Z,30.50
2022-08-29T20:26:38.001Z,30.50
2022-08-29T20:29:11.142Z,30.50
2022-08-29T20:31:41.133Z,30.50
2022-08-29T20:34:11.082Z,30.60
2022-08-29T20:36:57.220Z,30.60
2022-08-29T20:39:26.837Z,30.80
2022-08-29T20:42:00.271Z,30.70
2022-08-29T20:44:34.379Z,30.70
2022-08-29T20:47:04.173Z,30.80
2022-08-29T20:49:33.805Z,30.70
2022-08-29T20:52:04.330Z,30.60
2022-08-29T20:54:35.339Z,30.60
2022-08-29T20:57:07.417Z,30.60
2022-08-29T20:59:39.467Z,30.60
2022-08-29T21:02:10.535Z,30.60
2022-08-29T21:04:56.702Z,30.40
2022-08-29T21:07:25.924Z,30.50
2022-08-29T21:09:55.865Z,30.50
2022-08-29T21:12:27.620Z,30.50
2022-08-29T21:14:56.551Z,30.40
2022-08-29T21:17:25.230Z,30.20
2022-08-29T21:19:54.613Z,30.10
2022-08-29T21:22:25.213Z,30.10
2022-08-29T21:24:56.446Z,30.10
2022-08-29T21:27:26.728Z,30.10
2022-08-29T21:29:56.652Z,29.90
2022-08-29T21:32:25.986Z,29.80
2022-08-29T21:34:54.588Z,29.80
2022-08-29T21:37:23.260Z,29.80
2022-08-29T21:39:52.111Z,29.80
2022-08-29T21:42:20.744Z,29.80
2022-08-29T21:44:50.688Z,29.70
2022-08-29T21:47:19.524Z,29.60
2022-08-29T21:49:51.621Z,29.70
2022-08-29T21:52:21.520Z,29.80
2022-08-29T21:54:53.901Z,29.80
2022-08-29T21:57:40.846Z,29.80
2022-08-29T22:00:14.521Z,29.70
2022-08-29T22:02:44.503Z,29.80
2022-08-29T22:05:14.072Z,29.80
2022-08-29T22:07:44.219Z,29.70
2022-08-29T22:10:17.730Z,29.80
2022-08-29T22:12:46.401Z,29.80
2022-08-29T22:15:34.853Z,29.90
2022-08-29T22:18:04.763Z,29.90
2022-08-29T22:20:33.877Z,30.00
2022-08-29T22:23:03.504Z,30.00
2022-08-29T22:25:32.363Z,30.00
2022-08-29T22:28:02.653Z,30.00
2022-08-29T22:30:33.878Z,30.10
2022-08-29T22:33:03.814Z,30.10
2022-08-29T22:35:33.620Z,30.10
2022-08-29T22:38:02.384Z,30.20
2022-08-29T22:40:31.733Z,30.10
2022-08-29T22:43:00.444Z,30.10
2022-08-29T22:45:29.126Z,30.10
2022-08-29T22:47:59.320Z,30.10
2022-08-29T22:50:28.338Z,29.90
2022-08-29T22:52:59.466Z,29.90
2022-08-29T22:57:56.537Z,30.00
2022-08-29T23:00:27.560Z,29.80
2022-08-29T23:02:57.881Z,29.80
2022-08-29T23:05:26.937Z,29.90
2022-08-29T23:07:56.064Z,29.90
2022-08-29T23:10:24.920Z,29.90
2022-08-29T23:12:53.759Z,29.90
2022-08-29T23:15:22.464Z,29.90
2022-08-29T23:17:51.334Z,30.00
2022-08-29T23:20:21.544Z,30.00
2022-08-29T23:22:50.431Z,29.90
2022-08-29T23:25:20.233Z,29.80
2022-08-29T23:27:48.904Z,29.90
2022-08-29T23:30:17.506Z,29.80
2022-08-29T23:32:46.312Z,29.70
2022-08-29T23:35:15.152Z,29.60
2022-08-29T23:37:45.164Z,29.60
2022-08-29T23:40:14.036Z,29.50
2022-08-29T23:42:42.760Z,29.60
2022-08-29T23:45:13.464Z,29.60
2022-08-29T23:47:42.493Z,29.60
2022-08-29T23:50:14.230Z,29.60
2022-08-29T23:52:46.100Z,29.60
2022-08-29T23:55:17.387Z,29.60
2022-08-29T23:57:46.612Z,29.50
